createdAt,value
2017-09-29T00:00:10.197Z,15.8
2017-09-29T00:01:12.326Z,15.8
2017-09-29T00:02:19.598Z,15.7
2017-09-29T00:03:21.691Z,15.6
2017-09-29T00:04:24.213Z,15.7
2017-09-29T00:05:26.279Z,15.6
2017-09-29T00:06:28.371Z,15.6
2017-09-29T00:07:30.471Z,15.7
2017-09-29T00:08:32.634Z,15.6
2017-09-29T00:09:35.067Z,15.5
2017-09-29T00:10:37.132Z,15.5
2017-09-29T00:11:39.163Z,15.5
2017-09-29T00:12:41.267Z,15.6
2017-09-29T00:13:43.371Z,15.7
2017-09-29T00:14:45.761Z,15.8
2017-09-29T00:15:47.845Z,15.7
2017-09-29T00:16:49.970Z,15.7
2017-09-29T00:17:52.096Z,15.7
2017-09-29T00:18:54.157Z,15.7
2017-09-29T00:19:56.566Z,15.8
2017-09-29T00:20:58.622Z,15.9
2017-09-29T00:22:00.648Z,15.8
2017-09-29T00:23:02.704Z,15.8
2017-09-29T00:24:04.785Z,15.7
2017-09-29T00:25:07.251Z,15.7
2017-09-29T00:26:09.326Z,15.7
2017-09-29T00:27:11.437Z,15.7
2017-09-29T00:28:13.626Z,15.7
2017-09-29T00:29:16.047Z,15.8
2017-09-29T00:30:18.426Z,15.5
2017-09-29T00:31:20.492Z,15.5
2017-09-29T00:32:22.531Z,15.4
2017-09-29T00:33:24.614Z,15.3
2017-09-29T00:34:26.717Z,15.2
2017-09-29T00:35:29.620Z,15.3
2017-09-29T00:36:31.897Z,15.4
2017-09-29T00:37:34.021Z,15.4
2017-09-29T00:38:36.149Z,15.4
2017-09-29T00:39:38.220Z,15.4
2017-09-29T00:40:41.229Z,15.5
2017-09-29T00:41:43.293Z,15.5
2017-09-29T00:42:45.342Z,15.4
2017-09-29T00:43:47.391Z,15.4
2017-09-29T00:44:49.464Z,15.5
2017-09-29T00:45:52.402Z,15.5
2017-09-29T00:46:54.511Z,15.5
2017-09-29T00:47:56.606Z,15.5
2017-09-29T00:48:58.669Z,15.6
2017-09-29T00:50:00.733Z,15.7
2017-09-29T00:51:03.100Z,15.7
2017-09-29T00:52:07.605Z,15.6
2017-09-29T00:53:09.662Z,15.6
2017-09-29T00:54:11.690Z,15.5
2017-09-29T00:55:13.749Z,15.4
2017-09-29T00:56:16.084Z,15.4
2017-09-29T00:57:18.205Z,15.3
2017-09-29T00:58:20.341Z,15.3
2017-09-29T00:59:22.410Z,15.4
2017-09-29T01:00:24.479Z,15.4
2017-09-29T01:01:26.915Z,15.3
2017-09-29T01:02:28.973Z,15.4
2017-09-29T01:03:31.109Z,15.3
2017-09-29T01:04:33.282Z,15.4
2017-09-29T01:05:35.408Z,15.4
2017-09-29T01:06:37.802Z,15.4
2017-09-29T01:07:39.880Z,15.4
2017-09-29T01:08:41.971Z,15.4
2017-09-29T01:09:44.031Z,15.3
2017-09-29T01:10:46.123Z,15.2
2017-09-29T01:11:48.500Z,15.1
2017-09-29T01:12:50.572Z,15.1
2017-09-29T01:13:53.341Z,15.2
2017-09-29T01:14:55.416Z,15.2
2017-09-29T01:15:57.466Z,15.2
2017-09-29T01:16:59.936Z,15.2
2017-09-29T01:18:01.976Z,15.3
2017-09-29T01:19:04.035Z,15.2
2017-09-29T01:20:06.109Z,15.2
2017-09-29T01:21:08.192Z,15.2
2017-09-29T01:22:10.973Z,15.2
2017-09-29T01:23:13.034Z,15.3
2017-09-29T01:24:15.147Z,15.2
2017-09-29T01:25:17.300Z,15.3
2017-09-29T01:26:19.406Z,15.3
2017-09-29T01:27:21.781Z,15.5
2017-09-29T01:28:23.874Z,15.5
2017-09-29T01:29:26.057Z,15.5
2017-09-29T01:30:28.114Z,15.6
2017-09-29T01:31:31.090Z,15.6
2017-09-29T01:32:33.434Z,15.6
2017-09-29T01:33:37.690Z,15.5
2017-09-29T01:34:39.805Z,15.5
2017-09-29T01:35:41.877Z,15.5
2017-09-29T01:36:44.778Z,15.4
2017-09-29T01:37:47.268Z,15.4
2017-09-29T01:38:49.343Z,15.4
2017-09-29T01:39:51.446Z,15.4
2017-09-29T01:40:53.537Z,15.2
2017-09-29T01:41:55.637Z,15.1
2017-09-29T01:42:58.048Z,15.1
2017-09-29T01:44:00.171Z,15.1
2017-09-29T01:45:02.226Z,15.2
2017-09-29T01:46:04.326Z,15.2
2017-09-29T01:47:06.451Z,15.2
2017-09-29T01:48:08.907Z,15.2
2017-09-29T01:49:10.990Z,15.2
2017-09-29T01:50:13.057Z,15.2
2017-09-29T01:51:15.145Z,15.2
2017-09-29T01:52:17.469Z,15.2
2017-09-29T01:53:20.126Z,15.1
2017-09-29T01:54:22.254Z,15.2
2017-09-29T01:55:24.316Z,15.2
2017-09-29T01:56:26.382Z,15.3
2017-09-29T01:57:28.590Z,15.4
2017-09-29T01:58:31.312Z,15.3
2017-09-29T01:59:33.403Z,15.3
2017-09-29T02:00:35.438Z,15.2
2017-09-29T02:01:37.510Z,15.3
2017-09-29T02:02:39.736Z,15.3
2017-09-29T02:03:42.170Z,15.3
2017-09-29T02:04:44.228Z,15.4
2017-09-29T02:05:46.914Z,15.4
2017-09-29T02:06:48.957Z,15.3
2017-09-29T02:07:51.006Z,15.3
2017-09-29T02:08:53.371Z,15.3
2017-09-29T02:09:55.476Z,15.4
2017-09-29T02:10:57.545Z,15.4
2017-09-29T02:11:59.572Z,15.3
2017-09-29T02:13:01.673Z,15.3
2017-09-29T02:14:04.060Z,15.4
2017-09-29T02:15:06.240Z,15.5
2017-09-29T02:16:08.369Z,15.5
2017-09-29T02:17:10.461Z,15.5
2017-09-29T02:18:12.576Z,15.5
2017-09-29T02:19:14.934Z,15.4
2017-09-29T02:20:17.833Z,15.6
2017-09-29T02:21:19.949Z,15.5
2017-09-29T02:22:22.096Z,15.4
2017-09-29T02:23:24.176Z,15.5
2017-09-29T02:24:26.617Z,15.4
2017-09-29T02:25:28.675Z,15.4
2017-09-29T02:26:30.765Z,15.5
2017-09-29T02:27:32.923Z,15.5
2017-09-29T02:28:34.988Z,15.4
2017-09-29T02:29:37.390Z,15.5
2017-09-29T02:30:39.474Z,15.6
2017-09-29T02:31:41.546Z,15.6
2017-09-29T02:32:43.650Z,15.5
2017-09-29T02:33:45.701Z,15.4
2017-09-29T02:34:49.138Z,15.4
2017-09-29T02:35:51.219Z,15.4
2017-09-29T02:36:53.310Z,15.4
2017-09-29T02:37:55.357Z,15.3
2017-09-29T02:38:57.412Z,15.3
2017-09-29T02:39:59.828Z,15.3
2017-09-29T02:41:01.908Z,15.3
2017-09-29T02:42:03.967Z,15.3
2017-09-29T02:43:06.052Z,15.3
2017-09-29T02:44:08.129Z,15.2
2017-09-29T02:45:10.458Z,15.2
2017-09-29T02:46:12.993Z,15.2
2017-09-29T02:47:15.049Z,15.4
2017-09-29T02:48:17.121Z,15.5
2017-09-29T02:49:19.203Z,15.5
2017-09-29T02:50:21.615Z,15.6
2017-09-29T02:51:23.682Z,15.6
2017-09-29T02:52:25.717Z,15.6
2017-09-29T02:53:27.770Z,15.4
2017-09-29T02:54:29.808Z,15.4
2017-09-29T02:55:32.193Z,15.4
2017-09-29T02:56:34.691Z,15.3
2017-09-29T02:57:36.807Z,15.4
2017-09-29T02:58:38.988Z,15.4
2017-09-29T02:59:41.054Z,15.3
2017-09-29T03:00:43.430Z,15.2
2017-09-29T03:01:45.527Z,15.1
2017-09-29T03:02:47.673Z,15.1
2017-09-29T03:03:49.704Z,15.2
2017-09-29T03:04:51.770Z,15.1
2017-09-29T03:05:54.163Z,15.1
2017-09-29T03:06:56.223Z,15.1
2017-09-29T03:07:58.343Z,15.3
2017-09-29T03:09:03.050Z,15.3
2017-09-29T03:10:05.142Z,15.3
2017-09-29T03:11:07.528Z,15.2
2017-09-29T03:12:09.708Z,15.2
2017-09-29T03:13:11.863Z,15.2
2017-09-29T03:14:13.950Z,15.1
2017-09-29T03:15:16.114Z,15.1
2017-09-29T03:16:18.510Z,15.1
2017-09-29T03:17:20.664Z,15.1
2017-09-29T03:18:22.735Z,15
2017-09-29T03:19:24.810Z,15
2017-09-29T03:20:26.854Z,15.1
2017-09-29T03:21:29.227Z,15
2017-09-29T03:22:31.315Z,14.9
2017-09-29T03:23:33.480Z,15
2017-09-29T03:24:35.927Z,15
2017-09-29T03:25:38.061Z,14.9
2017-09-29T03:26:40.449Z,15
2017-09-29T03:27:42.502Z,15
2017-09-29T03:28:44.577Z,14.9
2017-09-29T03:29:46.773Z,14.9
2017-09-29T03:30:48.860Z,14.8
2017-09-29T03:31:51.259Z,14.7
2017-09-29T03:32:53.318Z,14.8
2017-09-29T03:33:55.380Z,14.7
2017-09-29T03:34:57.479Z,14.7
2017-09-29T03:35:59.591Z,14.7
2017-09-29T03:37:01.975Z,14.6
2017-09-29T03:38:04.067Z,14.6
2017-09-29T03:39:06.126Z,14.5
2017-09-29T03:40:08.175Z,14.5
2017-09-29T03:41:10.263Z,14.5
2017-09-29T03:42:12.660Z,14.5
2017-09-29T03:43:14.767Z,14.6
2017-09-29T03:44:16.840Z,14.6
2017-09-29T03:45:18.933Z,14.6
2017-09-29T03:46:20.983Z,14.6
2017-09-29T03:47:23.385Z,14.6
2017-09-29T03:48:25.473Z,14.7
2017-09-29T03:49:27.556Z,14.7
2017-09-29T03:50:29.652Z,14.7
2017-09-29T03:51:31.823Z,14.7
2017-09-29T03:52:34.205Z,14.6
2017-09-29T03:53:36.324Z,14.6
2017-09-29T03:54:38.423Z,14.6
2017-09-29T03:55:40.483Z,14.6
2017-09-29T03:56:42.561Z,14.6
2017-09-29T03:57:45.132Z,14.6
2017-09-29T03:58:47.210Z,14.7
2017-09-29T03:59:49.266Z,14.6
2017-09-29T04:00:51.312Z,14.7
2017-09-29T04:01:53.384Z,14.7
2017-09-29T04:02:55.897Z,14.6
2017-09-29T04:03:58.727Z,14.5
2017-09-29T04:05:00.784Z,14.4
2017-09-29T04:06:02.904Z,14.5
2017-09-29T04:07:05.049Z,14.5
2017-09-29T04:08:07.402Z,14.5
2017-09-29T04:09:09.465Z,14.5
2017-09-29T04:10:11.516Z,14.5
2017-09-29T04:11:13.780Z,14.6
2017-09-29T04:12:15.862Z,14.6
2017-09-29T04:13:18.281Z,14.5
2017-09-29T04:14:20.353Z,14.5
2017-09-29T04:15:23.298Z,14.3
2017-09-29T04:16:25.364Z,14.3
2017-09-29T04:17:28.068Z,14.3
2017-09-29T04:18:30.467Z,14.4
2017-09-29T04:19:32.642Z,14.3
2017-09-29T04:20:34.714Z,14.1
2017-09-29T04:21:36.794Z,14.1
2017-09-29T04:22:38.845Z,14.1
2017-09-29T04:23:41.310Z,14.1
2017-09-29T04:24:43.366Z,14.2
2017-09-29T04:25:45.410Z,14.2
2017-09-29T04:26:47.504Z,14.2
2017-09-29T04:27:49.712Z,14.3
2017-09-29T04:28:52.286Z,14.2
2017-09-29T04:29:54.562Z,14.2
2017-09-29T04:30:56.678Z,14.2
2017-09-29T04:31:58.847Z,14.3
2017-09-29T04:33:00.895Z,14.1
2017-09-29T04:34:03.263Z,14
2017-09-29T04:35:05.334Z,14.2
2017-09-29T04:36:07.450Z,14.2
2017-09-29T04:37:09.546Z,14
2017-09-29T04:38:11.612Z,13.9
2017-09-29T04:39:14.182Z,13.9
2017-09-29T04:40:16.258Z,13.9
2017-09-29T04:41:18.312Z,14.1
2017-09-29T04:42:20.408Z,14.1
2017-09-29T04:43:22.475Z,14.2
2017-09-29T04:44:25.063Z,14.1
2017-09-29T04:45:27.153Z,13.9
2017-09-29T04:46:29.270Z,13.9
2017-09-29T04:47:31.423Z,13.9
2017-09-29T04:48:33.565Z,13.8
2017-09-29T04:49:36.045Z,13.8
2017-09-29T04:50:38.117Z,13.8
2017-09-29T04:51:40.167Z,13.7
2017-09-29T04:52:42.232Z,13.7
2017-09-29T04:53:44.361Z,13.7
2017-09-29T04:54:46.840Z,13.7
2017-09-29T04:55:50.334Z,13.8
2017-09-29T04:56:52.427Z,13.9
2017-09-29T04:57:54.471Z,13.8
2017-09-29T04:58:56.544Z,13.8
2017-09-29T04:59:58.907Z,13.9
2017-09-29T05:01:00.986Z,14
2017-09-29T05:02:03.061Z,14
2017-09-29T05:03:05.135Z,14
2017-09-29T05:04:07.211Z,13.9
2017-09-29T05:05:09.715Z,13.9
2017-09-29T05:06:11.758Z,13.9
2017-09-29T05:07:13.825Z,13.9
2017-09-29T05:08:15.915Z,13.9
2017-09-29T05:09:17.969Z,13.9
2017-09-29T05:10:20.428Z,14
2017-09-29T05:11:22.470Z,14
2017-09-29T05:12:24.614Z,14
2017-09-29T05:13:26.729Z,14
2017-09-29T05:14:28.774Z,14
2017-09-29T05:15:31.172Z,14
2017-09-29T05:16:33.642Z,14
2017-09-29T05:17:35.690Z,14.1
2017-09-29T05:18:38.225Z,14.1
2017-09-29T05:19:40.449Z,14
2017-09-29T05:20:42.993Z,14
2017-09-29T05:21:45.083Z,14.1
2017-09-29T05:22:49.806Z,14.1
2017-09-29T05:24:00.151Z,14.2
2017-09-29T05:25:02.201Z,14.1
2017-09-29T05:26:04.650Z,14.2
2017-09-29T05:27:06.741Z,14.1
2017-09-29T05:28:08.814Z,14.1
2017-09-29T05:29:10.985Z,14
2017-09-29T05:30:13.123Z,14
2017-09-29T05:31:15.542Z,14
2017-09-29T05:32:17.585Z,14
2017-09-29T05:33:19.708Z,14.1
2017-09-29T05:34:21.922Z,14.1
2017-09-29T05:35:24.059Z,14.2
2017-09-29T05:36:26.430Z,14.1
2017-09-29T05:37:28.513Z,14
2017-09-29T05:38:30.648Z,14.1
2017-09-29T05:39:32.741Z,14.1
2017-09-29T05:40:36.818Z,14
2017-09-29T05:41:39.247Z,14
2017-09-29T05:42:41.320Z,14
2017-09-29T05:43:43.364Z,13.8
2017-09-29T05:44:45.465Z,13.8
2017-09-29T05:45:47.535Z,13.8
2017-09-29T05:46:49.939Z,13.8
2017-09-29T05:47:52.041Z,13.8
2017-09-29T05:48:54.124Z,13.9
2017-09-29T05:49:56.186Z,13.9
2017-09-29T05:50:58.220Z,13.9
2017-09-29T05:52:01.031Z,13.8
2017-09-29T05:53:03.118Z,13.9
2017-09-29T05:54:05.271Z,13.9
2017-09-29T05:55:07.407Z,14
2017-09-29T05:56:09.548Z,14
2017-09-29T05:57:11.932Z,14
2017-09-29T05:58:14.069Z,14
2017-09-29T05:59:16.171Z,14
2017-09-29T06:00:18.272Z,14
2017-09-29T06:01:20.388Z,13.9
2017-09-29T06:02:22.759Z,13.8
2017-09-29T06:03:24.914Z,13.8
2017-09-29T06:04:27.009Z,13.9
2017-09-29T06:05:29.060Z,13.9
2017-09-29T06:06:31.333Z,13.9
2017-09-29T06:07:33.673Z,13.9
2017-09-29T06:08:35.774Z,13.8
2017-09-29T06:09:37.870Z,13.7
2017-09-29T06:10:39.969Z,13.7
2017-09-29T06:11:42.048Z,13.8
2017-09-29T06:12:44.422Z,13.8
2017-09-29T06:13:46.460Z,13.9
2017-09-29T06:14:48.519Z,14.1
2017-09-29T06:15:51.245Z,14.1
2017-09-29T06:16:53.366Z,14.2
2017-09-29T06:17:55.711Z,14.3
2017-09-29T06:18:57.850Z,14.1
2017-09-29T06:19:59.993Z,14
2017-09-29T06:21:02.059Z,14.1
2017-09-29T06:22:04.121Z,14.1
2017-09-29T06:23:07.660Z,14.2
2017-09-29T06:24:09.758Z,14.2
2017-09-29T06:25:11.824Z,14.2
2017-09-29T06:26:13.935Z,14.2
2017-09-29T06:27:16.024Z,14.1
2017-09-29T06:28:18.409Z,14.1
2017-09-29T06:29:23.116Z,14.2
2017-09-29T06:30:25.825Z,14.1
2017-09-29T06:31:27.915Z,14.1
2017-09-29T06:32:30.059Z,14.2
2017-09-29T06:33:32.401Z,14.3
2017-09-29T06:34:34.486Z,14.3
2017-09-29T06:35:36.652Z,14.5
2017-09-29T06:36:38.727Z,14.4
2017-09-29T06:37:40.865Z,14.4
2017-09-29T06:38:43.287Z,14.3
2017-09-29T06:39:45.411Z,14.3
2017-09-29T06:40:47.504Z,14.3
2017-09-29T06:41:49.714Z,14.4
2017-09-29T06:42:51.820Z,14.3
2017-09-29T06:43:54.202Z,14.3
2017-09-29T06:44:56.307Z,14.3
2017-09-29T06:45:58.419Z,14.4
2017-09-29T06:47:00.512Z,14.4
2017-09-29T06:48:02.641Z,14.5
2017-09-29T06:49:05.003Z,14.6
2017-09-29T06:50:07.070Z,14.7
2017-09-29T06:51:09.139Z,14.6
2017-09-29T06:52:11.281Z,14.6
2017-09-29T06:53:13.371Z,14.6
2017-09-29T06:54:15.692Z,14.5
2017-09-29T06:55:17.778Z,14.6
2017-09-29T06:56:19.956Z,14.6
2017-09-29T06:57:22.130Z,14.7
2017-09-29T06:58:24.241Z,14.7
2017-09-29T06:59:26.716Z,14.7
2017-09-29T07:00:28.866Z,14.8
2017-09-29T07:01:30.936Z,14.8
2017-09-29T07:02:33.042Z,14.8
2017-09-29T07:03:35.129Z,14.6
2017-09-29T07:04:37.656Z,14.7
2017-09-29T07:05:39.737Z,14.8
2017-09-29T07:06:41.836Z,14.9
2017-09-29T07:07:44.004Z,15.3
2017-09-29T07:08:46.111Z,15.4
2017-09-29T07:09:48.530Z,15.2
2017-09-29T07:10:50.760Z,15.2
2017-09-29T07:11:52.943Z,15.6
2017-09-29T07:12:55.058Z,15.6
2017-09-29T07:13:57.169Z,15.4
2017-09-29T07:14:59.297Z,15.5
2017-09-29T07:16:01.431Z,15.6
2017-09-29T07:17:03.581Z,15.6
2017-09-29T07:18:05.719Z,15.5
2017-09-29T07:19:07.875Z,-140.1
2017-09-29T07:20:10.267Z,-140.1
2017-09-29T07:21:12.357Z,-140.1
2017-09-29T07:22:14.493Z,-140.1
2017-09-29T07:23:16.620Z,-140.1
2017-09-29T07:24:18.751Z,-140.1
2017-09-29T07:25:21.229Z,-140.1
2017-09-29T07:26:23.435Z,-140.1
2017-09-29T07:27:25.539Z,-140.1
2017-09-29T07:28:27.664Z,-140.1
2017-09-29T07:29:29.737Z,-140.1
2017-09-29T07:30:32.202Z,-140.1
2017-09-29T07:31:34.357Z,-140.1
2017-09-29T07:32:36.420Z,-140.1
2017-09-29T07:33:38.501Z,-140.1
2017-09-29T07:34:40.712Z,-140.1
2017-09-29T07:35:44.549Z,-140.1
2017-09-29T07:36:46.605Z,-140.1
2017-09-29T07:37:48.718Z,-140.1
2017-09-29T07:38:50.796Z,-140.1
2017-09-29T07:39:52.875Z,-140.1
2017-09-29T07:40:55.230Z,-140.1
2017-09-29T07:41:57.285Z,-140.1
2017-09-29T07:42:59.387Z,-140.1
2017-09-29T07:44:01.490Z,-140.1
2017-09-29T07:45:03.553Z,-140.1
2017-09-29T07:46:08.676Z,-140.1
2017-09-29T07:47:10.764Z,-140.1
2017-09-29T07:48:12.908Z,-140.1
2017-09-29T07:49:15.562Z,-140.1
2017-09-29T07:50:17.679Z,-140.1
2017-09-29T07:51:20.071Z,-140.1
2017-09-29T07:52:22.150Z,-140.1
2017-09-29T07:53:24.262Z,-140.1
2017-09-29T07:54:26.380Z,-140.1
2017-09-29T07:55:28.506Z,-140.1
2017-09-29T07:56:30.947Z,-140.1
2017-09-29T07:57:33.079Z,-140.1
2017-09-29T07:58:35.229Z,-140.1
2017-09-29T07:59:37.336Z,-140.1
2017-09-29T08:00:39.425Z,-140.1
2017-09-29T08:01:41.845Z,-140.1
2017-09-29T08:02:43.903Z,-140.1
2017-09-29T08:03:46.016Z,-140.1
2017-09-29T08:04:48.604Z,-140.1
2017-09-29T08:05:50.714Z,-140.1
2017-09-29T08:06:53.146Z,-140.1
2017-09-29T08:07:55.250Z,-140.1
2017-09-29T08:08:57.349Z,-140.1
2017-09-29T08:09:59.411Z,-140.1
2017-09-29T08:11:01.535Z,-140.1
2017-09-29T08:12:06.232Z,-140.1
2017-09-29T08:13:08.333Z,-140.1
2017-09-29T08:14:10.433Z,-140.1
2017-09-29T08:15:12.518Z,-140.1
2017-09-29T08:16:14.620Z,-140.1
2017-09-29T08:17:22.584Z,-140.1
2017-09-29T08:18:24.677Z,-140.1
2017-09-29T08:19:26.750Z,-140.1
2017-09-29T08:20:28.859Z,-140.1
2017-09-29T08:21:30.911Z,-140.1
2017-09-29T08:22:33.295Z,-140.1
2017-09-29T08:23:35.429Z,-140.1
2017-09-29T08:24:37.628Z,-140.1
2017-09-29T08:25:39.694Z,-140.1
2017-09-29T08:26:41.791Z,-140.1
2017-09-29T08:27:44.169Z,-140.1
2017-09-29T08:28:46.295Z,-140.1
2017-09-29T08:29:48.369Z,-140.1
2017-09-29T08:30:50.472Z,-140.1
2017-09-29T08:31:52.628Z,-140.1
2017-09-29T08:32:55.041Z,-140.1
2017-09-29T08:33:57.176Z,-140.1
2017-09-29T08:34:59.246Z,-140.1
2017-09-29T08:36:01.340Z,-140.1
2017-09-29T08:37:03.406Z,-140.1
2017-09-29T08:38:05.849Z,-140.1
2017-09-29T08:39:07.932Z,-140.1
2017-09-29T08:40:10.051Z,-140.1
2017-09-29T08:41:12.188Z,-140.1
2017-09-29T08:42:15.716Z,-140.1
2017-09-29T08:43:18.155Z,-140.1
2017-09-29T08:44:20.265Z,-140.1
2017-09-29T08:45:22.318Z,-140.1
2017-09-29T08:46:24.398Z,-140.1
2017-09-29T08:47:26.485Z,-140.1
2017-09-29T08:48:28.906Z,-140.1
2017-09-29T08:49:31.002Z,-140.1
2017-09-29T08:50:33.101Z,-140.1
2017-09-29T08:51:35.214Z,-140.1
2017-09-29T08:52:37.346Z,-140.1
2017-09-29T08:53:39.716Z,-140.1
2017-09-29T08:54:41.867Z,-140.1
2017-09-29T08:55:43.982Z,-140.1
2017-09-29T08:56:46.111Z,-140.1
2017-09-29T08:57:48.157Z,-140.1
2017-09-29T08:58:50.620Z,-140.1
2017-09-29T08:59:52.740Z,-140.1
2017-09-29T09:00:55.197Z,-140.1
2017-09-29T09:01:57.368Z,-140.1
2017-09-29T09:02:59.459Z,-140.1
2017-09-29T09:04:01.925Z,-140.1
2017-09-29T09:05:04.061Z,-140.1
2017-09-29T09:06:06.155Z,-140.1
2017-09-29T09:07:08.230Z,-140.1
2017-09-29T09:08:10.394Z,-140.1
2017-09-29T09:09:12.923Z,-140.1
2017-09-29T09:10:15.005Z,-140.1
2017-09-29T09:11:17.094Z,-140.1
2017-09-29T09:12:19.164Z,-140.1
2017-09-29T09:13:21.275Z,-140.1
2017-09-29T09:14:23.679Z,-140.1
2017-09-29T09:15:25.744Z,-140.1
2017-09-29T09:16:28.005Z,-140.1
2017-09-29T09:17:30.133Z,-140.1
2017-09-29T09:18:32.248Z,-140.1
2017-09-29T09:19:34.609Z,-140.1
2017-09-29T09:20:36.693Z,-140.1
2017-09-29T09:21:38.834Z,-140.1
2017-09-29T09:22:40.936Z,-140.1
2017-09-29T09:23:43.032Z,-140.1
2017-09-29T09:24:45.426Z,-140.1
2017-09-29T09:25:47.490Z,-140.1
2017-09-29T09:26:49.611Z,-140.1
2017-09-29T09:27:51.750Z,-140.1
2017-09-29T09:28:53.828Z,-140.1
2017-09-29T09:29:57.072Z,-140.1
2017-09-29T09:30:59.190Z,-140.1
2017-09-29T09:32:01.288Z,-140.1
2017-09-29T09:33:03.426Z,-140.1
2017-09-29T09:34:05.492Z,-140.1
2017-09-29T09:35:07.920Z,-140.1
2017-09-29T09:36:10.023Z,-140.1
2017-09-29T09:37:12.141Z,-140.1
2017-09-29T09:38:14.267Z,-140.1
2017-09-29T09:39:16.404Z,-140.1
2017-09-29T09:40:18.797Z,-140.1
2017-09-29T09:41:20.938Z,-140.1
2017-09-29T09:42:23.113Z,-140.1
2017-09-29T09:43:25.270Z,-140.1
2017-09-29T09:44:27.407Z,-140.1
2017-09-29T09:45:29.767Z,-140.1
2017-09-29T09:46:31.898Z,-140.1
2017-09-29T09:47:34.862Z,-140.1
2017-09-29T09:48:37.009Z,-140.1
2017-09-29T09:49:39.089Z,-140.1
2017-09-29T09:50:41.541Z,-140.1
2017-09-29T09:51:43.641Z,-140.1
2017-09-29T09:52:45.706Z,-140.1
2017-09-29T09:53:48.249Z,-140.1
2017-09-29T09:54:50.335Z,-140.1
2017-09-29T09:55:52.749Z,-140.1
2017-09-29T09:56:54.883Z,-140.1
2017-09-29T09:57:57.683Z,-140.1
2017-09-29T09:58:59.887Z,-140.1
2017-09-29T10:00:01.984Z,-140.1
2017-09-29T10:01:04.398Z,-140.1
2017-09-29T10:02:06.721Z,-140.1
2017-09-29T10:03:08.816Z,-140.1
2017-09-29T10:04:10.924Z,-140.1
2017-09-29T10:05:13.077Z,-140.1
2017-09-29T10:06:15.528Z,-140.1
2017-09-29T10:07:17.618Z,-140.1
2017-09-29T10:08:19.666Z,-140.1
2017-09-29T10:09:21.790Z,-140.1
2017-09-29T10:10:23.974Z,-140.1
2017-09-29T10:11:26.430Z,-140.1
2017-09-29T10:12:28.517Z,-140.1
2017-09-29T10:13:30.646Z,-140.1
2017-09-29T10:14:32.733Z,-140.1
2017-09-29T10:15:34.823Z,-140.1
2017-09-29T10:16:37.230Z,-140.1
2017-09-29T10:17:39.413Z,-140.1
2017-09-29T10:18:42.165Z,-140.1
2017-09-29T10:19:44.271Z,-140.1
2017-09-29T10:20:46.354Z,-140.1
2017-09-29T10:21:48.827Z,-140.1
2017-09-29T10:22:51.711Z,-140.1
2017-09-29T10:23:53.935Z,-140.1
2017-09-29T10:24:56.110Z,-140.1
2017-09-29T10:25:58.224Z,-140.1
2017-09-29T10:27:00.644Z,-140.1
2017-09-29T10:28:02.747Z,-140.1
2017-09-29T10:29:04.881Z,-140.1
2017-09-29T10:30:06.984Z,-140.1
2017-09-29T10:31:09.090Z,-140.1
2017-09-29T10:32:11.480Z,-140.1
2017-09-29T10:33:13.558Z,-140.1
2017-09-29T10:34:15.646Z,-140.1
2017-09-29T10:35:17.763Z,-140.1
2017-09-29T10:36:19.834Z,-140.1
2017-09-29T10:37:21.931Z,-140.1
2017-09-29T10:38:24.044Z,-140.1
2017-09-29T10:39:26.167Z,-140.1
2017-09-29T10:40:28.268Z,-140.1
2017-09-29T10:41:30.364Z,-140.1
2017-09-29T10:42:32.794Z,-140.1
2017-09-29T10:43:34.888Z,-140.1
2017-09-29T10:44:37.009Z,-140.1
2017-09-29T10:45:39.226Z,-140.1
2017-09-29T10:46:41.296Z,-140.1
2017-09-29T10:47:43.554Z,-140.1
2017-09-29T10:48:45.841Z,-140.1
2017-09-29T10:49:47.939Z,-140.1
2017-09-29T10:50:50.029Z,-140.1
2017-09-29T10:51:52.148Z,-140.1
2017-09-29T10:52:54.585Z,-140.1
2017-09-29T10:53:56.742Z,-140.1
2017-09-29T10:54:58.944Z,-140.1
2017-09-29T10:56:01.052Z,-140.1
2017-09-29T10:57:03.151Z,-140.1
2017-09-29T10:58:05.268Z,-140.1
2017-09-29T10:59:07.389Z,-140.1
2017-09-29T11:00:09.469Z,-140.1
2017-09-29T11:01:11.616Z,-140.1
2017-09-29T11:02:13.708Z,-140.1
2017-09-29T11:03:16.141Z,-140.1
2017-09-29T11:04:18.281Z,-140.1
2017-09-29T11:05:20.450Z,-140.1
2017-09-29T11:06:22.517Z,-140.1
2017-09-29T11:07:24.605Z,-140.1
2017-09-29T11:08:26.666Z,-140.1
2017-09-29T11:09:28.777Z,-140.1
2017-09-29T11:10:30.890Z,-140.1
2017-09-29T11:11:33.019Z,-140.1
2017-09-29T11:12:35.084Z,-140.1
2017-09-29T11:13:37.242Z,-140.1
2017-09-29T11:14:39.657Z,-140.1
2017-09-29T11:15:41.730Z,-140.1
2017-09-29T11:16:43.845Z,-140.1
2017-09-29T11:17:45.924Z,-140.1
2017-09-29T11:18:48.061Z,-140.1
2017-09-29T11:19:50.181Z,-140.1
2017-09-29T11:20:52.380Z,-140.1
2017-09-29T11:21:54.548Z,-140.1
2017-09-29T11:22:56.611Z,-140.1
2017-09-29T11:23:58.730Z,-140.1
2017-09-29T11:25:00.826Z,-140.1
2017-09-29T11:26:02.937Z,-140.1
2017-09-29T11:27:05.051Z,-140.1
2017-09-29T11:28:07.137Z,-140.1
2017-09-29T11:29:09.499Z,-140.1
2017-09-29T11:30:11.554Z,-140.1
2017-09-29T11:31:13.705Z,-140.1
2017-09-29T11:32:15.827Z,-140.1
2017-09-29T11:33:17.939Z,-140.1
2017-09-29T11:34:20.074Z,-140.1
2017-09-29T11:35:22.165Z,-140.1
2017-09-29T11:36:25.273Z,-140.1
2017-09-29T11:37:27.378Z,-140.1
2017-09-29T11:38:29.512Z,-140.1
2017-09-29T11:39:31.639Z,-140.1
2017-09-29T11:40:33.778Z,-140.1
2017-09-29T11:41:35.859Z,-140.1
2017-09-29T11:42:37.903Z,-140.1
2017-09-29T11:43:39.970Z,-140.1
2017-09-29T11:44:42.328Z,-140.1
2017-09-29T11:45:44.430Z,-140.1
2017-09-29T11:46:46.540Z,-140.1
2017-09-29T11:47:48.612Z,-140.1
2017-09-29T11:48:50.731Z,-140.1
2017-09-29T11:49:52.854Z,-140.1
2017-09-29T11:50:56.094Z,-140.1
2017-09-29T11:51:58.218Z,-140.1
2017-09-29T11:53:00.392Z,-140.1
2017-09-29T11:54:02.499Z,-140.1
2017-09-29T11:55:04.620Z,-140.1
2017-09-29T11:56:06.729Z,-140.1
2017-09-29T11:57:08.842Z,-140.1
2017-09-29T11:58:11.020Z,-140.1
2017-09-29T11:59:13.124Z,-140.1
2017-09-29T12:00:15.229Z,-140.1
2017-09-29T12:01:17.311Z,-140.1
2017-09-29T12:02:19.406Z,-140.1
2017-09-29T12:03:21.498Z,-140.1
2017-09-29T12:04:23.617Z,-140.1
2017-09-29T12:05:25.747Z,-140.1
2017-09-29T12:06:27.887Z,-140.1
2017-09-29T12:07:30.002Z,-140.1
2017-09-29T12:08:32.166Z,-140.1
2017-09-29T12:09:34.319Z,-140.1
2017-09-29T12:10:36.466Z,-140.1
2017-09-29T12:11:38.599Z,-140.1
2017-09-29T12:12:40.697Z,-140.1
2017-09-29T12:13:42.805Z,-140.1
2017-09-29T12:14:45.022Z,-140.1
2017-09-29T12:15:47.171Z,-140.1
2017-09-29T12:16:49.461Z,-140.1
2017-09-29T12:17:51.717Z,-140.1
2017-09-29T12:18:53.835Z,-140.1
2017-09-29T12:19:55.985Z,-140.1
2017-09-29T12:20:58.141Z,-140.1
2017-09-29T12:22:00.315Z,-140.1
2017-09-29T12:23:02.453Z,-140.1
2017-09-29T12:24:04.755Z,-140.1
2017-09-29T12:25:06.907Z,-140.1
2017-09-29T12:26:09.070Z,-140.1
2017-09-29T12:27:11.170Z,-140.1
2017-09-29T12:28:13.336Z,-140.1
2017-09-29T12:29:15.443Z,-140.1
2017-09-29T12:30:17.576Z,-140.1
2017-09-29T12:31:19.737Z,-140.1
2017-09-29T12:32:21.820Z,-140.1
2017-09-29T12:33:23.914Z,-140.1
2017-09-29T12:34:25.999Z,-140.1
2017-09-29T12:35:28.070Z,-140.1
2017-09-29T12:36:30.209Z,-140.1
2017-09-29T12:37:32.301Z,-140.1
2017-09-29T12:38:34.446Z,-140.1
2017-09-29T12:39:37.474Z,-140.1
2017-09-29T12:40:39.594Z,-140.1
2017-09-29T12:41:41.715Z,-140.1
2017-09-29T12:42:43.844Z,-140.1
2017-09-29T12:43:45.904Z,-140.1
2017-09-29T12:44:47.958Z,-140.1
2017-09-29T12:45:50.063Z,-140.1
2017-09-29T12:46:52.172Z,-140.1
2017-09-29T12:47:54.320Z,-140.1
2017-09-29T12:48:56.565Z,-140.1
2017-09-29T12:49:58.877Z,-140.1
2017-09-29T12:51:00.968Z,-140.1
2017-09-29T12:52:03.074Z,-140.1
2017-09-29T12:53:05.195Z,-140.1
2017-09-29T12:54:07.328Z,-140.1
2017-09-29T12:55:09.422Z,-140.1
2017-09-29T12:56:11.590Z,-140.1
2017-09-29T12:57:13.746Z,-140.1
2017-09-29T12:58:15.888Z,-140.1
2017-09-29T12:59:17.992Z,-140.1
2017-09-29T13:00:20.696Z,-140.1
2017-09-29T13:01:22.898Z,-140.1
2017-09-29T13:02:25.050Z,-140.1
2017-09-29T13:03:27.132Z,-140.1
2017-09-29T13:04:29.231Z,-140.1
2017-09-29T13:05:31.360Z,-140.1
2017-09-29T13:06:33.455Z,-140.1
2017-09-29T13:07:35.753Z,-140.1
2017-09-29T13:08:37.899Z,-140.1
2017-09-29T13:09:40.029Z,-140.1
2017-09-29T13:10:42.158Z,-140.1
2017-09-29T13:11:44.319Z,-140.1
2017-09-29T13:12:46.442Z,-140.1
2017-09-29T13:13:48.642Z,-140.1
2017-09-29T13:14:50.726Z,-140.1
2017-09-29T13:15:52.806Z,-140.1
2017-09-29T13:16:54.912Z,-140.1
2017-09-29T13:17:57.048Z,-140.1
2017-09-29T13:18:59.193Z,-140.1
2017-09-29T13:20:01.386Z,-140.1
2017-09-29T13:21:03.527Z,-140.1
2017-09-29T13:22:05.968Z,-140.1
2017-09-29T13:23:08.256Z,-140.1
2017-09-29T13:24:10.373Z,-140.1
2017-09-29T13:25:12.477Z,-140.1
2017-09-29T13:26:14.613Z,-140.1